Bijsk Zonal'Naja, Russia
Current Conditions -  °F | °C
As of 11:30 PM on Friday 24 Oct 2014 (Local Time) from UNBB Reporting Station
Clear Clear  
Wind Chill: 38°   Ceiling: Unl
Heat Index: 45°   Visibility: 6mi
Dew Point: 36°   Wind: 13mph
Humidity: 71%   Direction: 170°S
Pressure: 29.88"   Gusts: NA
Location:  52.68°N, 84.95°E
Report Text: UNBB 241630Z 17006MPS CAVOK 07/02 Q1012 NOSIG RMK QFE736/098224CLRD66
Loading
Personal Weather Stations






























Interactive Weather Map
Tropical Storm Tracking
New forecast layout! Learn more

10-Day Weather Forecast

Advertisements
Track Severe Weather on mobile